createdAt,value
2023-04-14T00:00:20.690Z,14.26
2023-04-14T00:01:52.446Z,14.27
2023-04-14T00:03:24.336Z,14.29
2023-04-14T00:04:56.942Z,14.23
2023-04-14T00:06:28.489Z,14.23
2023-04-14T00:08:00.188Z,14.22
2023-04-14T00:09:32.137Z,14.24
2023-04-14T00:11:03.698Z,14.22
2023-04-14T00:12:35.189Z,14.21
2023-04-14T00:14:07.215Z,14.18
2023-04-14T00:15:40.072Z,14.18
2023-04-14T00:17:12.044Z,14.18
2023-04-14T00:18:43.613Z,14.20
2023-04-14T00:20:15.259Z,14.22
2023-04-14T00:21:47.354Z,14.22
2023-04-14T00:23:19.521Z,14.20
2023-04-14T00:24:51.376Z,14.18
2023-04-14T00:26:23.142Z,14.14
2023-04-14T00:27:54.864Z,14.16
2023-04-14T00:29:27.594Z,14.14
2023-04-14T00:30:59.310Z,14.04
2023-04-14T00:32:31.141Z,14.08
2023-04-14T00:34:02.993Z,14.09
2023-04-14T00:35:45.385Z,14.09
2023-04-14T00:37:17.691Z,14.10
2023-04-14T00:38:50.309Z,14.11
2023-04-14T00:40:29.763Z,14.13
2023-04-14T00:42:01.955Z,14.14
2023-04-14T00:43:33.669Z,14.18
2023-04-14T00:45:08.394Z,14.17
2023-04-14T00:46:40.837Z,14.15
2023-04-14T00:48:12.404Z,14.10
2023-04-14T00:49:44.291Z,14.06
2023-04-14T00:51:16.119Z,14.07
2023-04-14T00:52:48.363Z,14.12
2023-04-14T00:54:20.966Z,14.15
2023-04-14T00:55:52.550Z,14.22
2023-04-14T00:57:24.268Z,14.20
2023-04-14T00:59:09.492Z,14.22
2023-04-14T01:00:41.129Z,14.21
2023-04-14T01:02:14.842Z,14.21
2023-04-14T01:03:46.891Z,14.23
2023-04-14T01:05:18.864Z,14.27
2023-04-14T01:06:50.525Z,14.23
2023-04-14T01:08:22.119Z,14.21
2023-04-14T01:09:54.717Z,14.21
2023-04-14T01:11:47.223Z,14.20
2023-04-14T01:13:26.581Z,14.17
2023-04-14T01:15:16.896Z,14.12
2023-04-14T01:16:50.810Z,14.00
2023-04-14T01:18:40.655Z,13.95
2023-04-14T01:20:19.328Z,13.91
2023-04-14T01:21:52.658Z,13.80
2023-04-14T01:23:26.804Z,13.71
2023-04-14T01:25:16.945Z,13.61
2023-04-14T01:26:49.625Z,13.55
2023-04-14T01:28:24.008Z,13.47
2023-04-14T01:30:14.507Z,13.47
2023-04-14T01:31:46.436Z,13.35
2023-04-14T01:33:19.167Z,13.27
2023-04-14T01:34:51.267Z,13.23
2023-04-14T01:36:27.245Z,13.24
2023-04-14T01:37:59.615Z,13.26
2023-04-14T01:39:33.195Z,13.29
2023-04-14T01:41:05.870Z,13.27
2023-04-14T01:42:37.768Z,13.20
2023-04-14T01:44:09.274Z,13.14
2023-04-14T01:45:44.731Z,13.15
2023-04-14T01:47:16.296Z,13.12
2023-04-14T01:48:49.090Z,13.13
2023-04-14T01:50:20.973Z,13.16
2023-04-14T01:51:53.737Z,13.19
2023-04-14T01:53:26.004Z,13.24
2023-04-14T01:54:57.536Z,13.26
2023-04-14T01:56:29.160Z,13.23
2023-04-14T01:58:00.667Z,13.23
2023-04-14T01:59:32.728Z,13.24
2023-04-14T02:01:04.855Z,13.27
2023-04-14T02:02:38.093Z,13.29
2023-04-14T02:04:10.076Z,13.30
2023-04-14T02:05:42.806Z,13.31
2023-04-14T02:07:14.346Z,13.33
2023-04-14T02:08:46.084Z,13.37
2023-04-14T02:10:18.350Z,13.44
2023-04-14T02:11:49.973Z,13.47
2023-04-14T02:13:22.275Z,13.46
2023-04-14T02:14:53.975Z,13.44
2023-04-14T02:16:26.031Z,13.44
2023-04-14T02:17:58.437Z,13.39
2023-04-14T02:19:30.119Z,13.40
2023-04-14T02:21:01.622Z,13.41
2023-04-14T02:22:33.210Z,13.45
2023-04-14T02:24:04.957Z,13.54
2023-04-14T02:25:36.773Z,13.56
2023-04-14T02:27:08.927Z,13.53
2023-04-14T02:28:46.294Z,13.48
2023-04-14T02:30:19.718Z,13.41
2023-04-14T02:32:01.181Z,13.37
2023-04-14T02:33:34.124Z,13.40
2023-04-14T02:35:07.407Z,13.40
2023-04-14T02:36:59.270Z,13.37
2023-04-14T02:38:38.364Z,13.35
2023-04-14T02:40:16.363Z,13.30
2023-04-14T02:41:48.669Z,13.22
2023-04-14T02:43:20.315Z,13.18
2023-04-14T02:44:52.273Z,13.20
2023-04-14T02:46:24.002Z,13.25
2023-04-14T02:47:56.369Z,13.24
2023-04-14T02:49:27.923Z,13.25
2023-04-14T02:50:59.545Z,13.27
2023-04-14T02:52:31.655Z,13.27
2023-04-14T02:54:03.995Z,13.27
2023-04-14T02:55:35.579Z,13.19
2023-04-14T02:57:07.562Z,13.17
2023-04-14T02:58:39.657Z,13.18
2023-04-14T03:00:11.393Z,13.18
2023-04-14T03:01:43.623Z,13.25
2023-04-14T03:03:15.576Z,13.32
2023-04-14T03:04:47.196Z,13.36
2023-04-14T03:06:18.781Z,13.34
2023-04-14T03:07:51.147Z,13.30
2023-04-14T03:09:22.652Z,13.27
2023-04-14T03:10:54.174Z,13.25
2023-04-14T03:12:25.920Z,13.18
2023-04-14T03:13:57.485Z,13.14
2023-04-14T03:15:29.035Z,13.10
2023-04-14T03:17:00.535Z,13.00
2023-04-14T03:18:32.042Z,12.91
2023-04-14T03:20:03.775Z,12.83
2023-04-14T03:21:35.395Z,12.73
2023-04-14T03:23:07.901Z,12.65
2023-04-14T03:24:40.312Z,12.62
2023-04-14T03:26:12.635Z,12.60
2023-04-14T03:27:44.189Z,12.58
2023-04-14T03:29:16.020Z,12.57
2023-04-14T03:30:48.022Z,12.55
2023-04-14T03:32:19.664Z,12.55
2023-04-14T03:33:56.001Z,12.50
2023-04-14T03:35:27.572Z,12.53
2023-04-14T03:36:59.081Z,12.57
2023-04-14T03:38:30.647Z,12.60
2023-04-14T03:40:04.502Z,12.65
2023-04-14T03:41:37.824Z,12.64
2023-04-14T03:43:13.579Z,12.67
2023-04-14T03:44:51.949Z,12.73
2023-04-14T03:46:24.472Z,12.80
2023-04-14T03:47:58.247Z,12.81
2023-04-14T03:49:30.586Z,12.73
2023-04-14T03:51:02.813Z,12.71
2023-04-14T03:52:34.884Z,12.70
2023-04-14T03:54:06.576Z,12.67
2023-04-14T03:55:38.097Z,12.61
2023-04-14T03:57:10.790Z,12.58
2023-04-14T03:58:43.055Z,12.57
2023-04-14T04:00:15.382Z,12.57
2023-04-14T04:01:48.241Z,12.50
2023-04-14T04:03:20.059Z,12.46
2023-04-14T04:04:52.052Z,12.46
2023-04-14T04:06:23.879Z,12.49
2023-04-14T04:07:55.896Z,12.47
2023-04-14T04:09:27.491Z,12.42
2023-04-14T04:10:59.132Z,12.39
2023-04-14T04:12:30.881Z,12.35
2023-04-14T04:14:03.458Z,12.30
2023-04-14T04:15:35.184Z,12.21
2023-04-14T04:17:07.796Z,12.19
2023-04-14T04:18:39.604Z,12.16
2023-04-14T04:20:14.471Z,12.19
2023-04-14T04:21:46.131Z,12.26
2023-04-14T04:23:50.449Z,12.30
2023-04-14T04:31:19.263Z,12.36
2023-04-14T04:32:51.427Z,12.42
2023-04-14T04:34:23.579Z,12.48
2023-04-14T04:35:58.211Z,12.50
2023-04-14T04:39:18.932Z,12.57
2023-04-14T04:40:51.152Z,12.57
2023-04-14T04:42:22.734Z,12.59
2023-04-14T04:43:54.347Z,12.58
2023-04-14T04:45:40.388Z,12.58
2023-04-14T04:47:12.348Z,12.56
2023-04-14T04:48:48.501Z,12.56
2023-04-14T04:50:29.372Z,12.56
2023-04-14T04:52:00.960Z,12.59
2023-04-14T04:53:35.438Z,12.63
2023-04-14T04:55:07.342Z,12.65
2023-04-14T04:56:40.764Z,12.68
2023-04-14T04:58:12.689Z,12.72
2023-04-14T04:59:47.923Z,12.75
2023-04-14T05:01:19.786Z,12.79
2023-04-14T05:02:51.584Z,12.80
2023-04-14T05:04:23.321Z,12.82
2023-04-14T05:05:58.969Z,12.86
2023-04-14T05:07:30.457Z,12.92
2023-04-14T05:09:02.129Z,12.94
2023-04-14T05:10:35.067Z,12.99
2023-04-14T05:12:06.741Z,13.04
2023-04-14T05:13:38.248Z,13.09
2023-04-14T05:15:10.139Z,13.16
2023-04-14T05:16:41.734Z,13.19
2023-04-14T05:18:16.158Z,13.26
2023-04-14T05:19:57.754Z,13.35
2023-04-14T05:21:32.910Z,13.40
2023-04-14T05:23:04.512Z,13.49
2023-04-14T05:24:36.270Z,13.55
2023-04-14T05:27:46.140Z,13.55
2023-04-14T05:29:18.361Z,13.55
2023-04-14T05:30:51.438Z,13.64
2023-04-14T05:32:23.089Z,13.75
2023-04-14T05:33:54.669Z,13.81
2023-04-14T05:35:26.625Z,13.95
2023-04-14T05:36:58.130Z,14.05
2023-04-14T05:38:29.714Z,14.12
2023-04-14T05:40:01.515Z,14.18
2023-04-14T05:41:33.180Z,14.26
2023-04-14T05:43:04.796Z,14.30
2023-04-14T05:44:36.631Z,14.36
2023-04-14T05:46:08.223Z,14.46
2023-04-14T05:47:50.821Z,14.59
2023-04-14T05:51:39.748Z,14.95
2023-04-14T05:53:12.275Z,15.00
2023-04-14T05:54:43.949Z,14.94
2023-04-14T05:56:15.664Z,15.01
2023-04-14T05:57:47.324Z,15.05
2023-04-14T05:59:19.155Z,15.03
2023-04-14T06:00:50.960Z,15.06
2023-04-14T06:02:23.242Z,15.06
2023-04-14T06:03:55.226Z,15.17
2023-04-14T06:05:29.398Z,15.24
2023-04-14T06:07:17.960Z,15.33
2023-04-14T06:08:49.627Z,15.44
2023-04-14T06:10:21.236Z,15.53
2023-04-14T06:11:53.062Z,15.55
2023-04-14T06:13:31.995Z,15.65
2023-04-14T06:15:05.778Z,15.72
2023-04-14T06:16:37.488Z,15.77
2023-04-14T06:18:09.692Z,15.85
2023-04-14T06:19:55.512Z,15.85
2023-04-14T06:21:32.213Z,15.75
2023-04-14T06:23:07.935Z,15.69
2023-04-14T06:24:41.048Z,15.68
2023-04-14T06:26:28.406Z,15.70
2023-04-14T06:28:06.895Z,15.69
2023-04-14T06:29:38.501Z,15.63
2023-04-14T06:31:10.795Z,15.62
2023-04-14T06:32:42.580Z,15.59
2023-04-14T06:34:14.390Z,15.60
2023-04-14T06:37:32.342Z,15.81
2023-04-14T06:39:05.085Z,15.81
2023-04-14T06:40:36.730Z,15.75
2023-04-14T06:42:08.397Z,15.70
2023-04-14T06:43:43.046Z,15.67
2023-04-14T06:45:17.659Z,15.63
2023-04-14T06:47:03.331Z,15.61
2023-04-14T06:48:34.978Z,15.66
2023-04-14T06:50:08.094Z,15.72
2023-04-14T06:51:40.080Z,15.77
2023-04-14T06:53:13.061Z,15.80
2023-04-14T06:54:44.858Z,15.82
2023-04-14T06:56:17.621Z,15.87
2023-04-14T06:57:49.623Z,15.92
2023-04-14T06:59:23.503Z,15.91
2023-04-14T07:00:57.934Z,15.95
2023-04-14T07:02:30.158Z,15.95
2023-04-14T07:04:05.066Z,16.00
2023-04-14T07:05:50.808Z,16.05
2023-04-14T07:07:25.236Z,16.10
2023-04-14T07:08:57.205Z,16.19
2023-04-14T07:10:33.416Z,16.22
2023-04-14T07:12:07.874Z,16.24
2023-04-14T07:13:40.089Z,16.25
2023-04-14T07:15:17.962Z,16.30
2023-04-14T07:16:50.548Z,16.38
2023-04-14T07:18:28.280Z,16.44
2023-04-14T07:20:16.302Z,16.47
2023-04-14T07:22:07.988Z,16.55
2023-04-14T07:23:41.670Z,16.63
2023-04-14T07:25:16.452Z,16.70
2023-04-14T07:28:58.106Z,16.99
2023-04-14T07:30:33.879Z,17.10
2023-04-14T07:32:08.881Z,17.13
2023-04-14T07:33:42.636Z,17.18
2023-04-14T07:35:32.211Z,17.21
2023-04-14T07:37:06.434Z,17.30
2023-04-14T07:39:08.272Z,17.43
2023-04-14T07:43:02.159Z,17.75
2023-04-14T07:44:51.877Z,17.84
2023-04-14T07:46:23.739Z,17.91
2023-04-14T07:48:18.949Z,17.93
2023-04-14T07:50:17.725Z,17.82
2023-04-14T07:52:17.481Z,17.70
2023-04-14T07:55:54.985Z,17.56
2023-04-14T07:57:38.137Z,17.58
2023-04-14T08:01:10.275Z,17.66
2023-04-14T08:03:19.222Z,17.69
2023-04-14T08:05:20.411Z,17.61
2023-04-14T08:06:52.722Z,17.52
2023-04-14T08:08:30.588Z,17.50
2023-04-14T08:12:42.116Z,17.50
2023-04-14T08:14:51.689Z,17.53
2023-04-14T08:16:26.063Z,17.49
2023-04-14T08:17:58.327Z,17.41
2023-04-14T08:23:22.798Z,17.27
2023-04-14T08:25:31.504Z,17.25
2023-04-14T08:27:22.307Z,17.25
2023-04-14T08:28:57.228Z,17.34
2023-04-14T08:33:03.194Z,17.52
2023-04-14T08:35:39.344Z,17.55
2023-04-14T08:37:05.027Z,17.51
2023-04-14T08:53:15.936Z,17.97
2023-04-14T08:57:30.665Z,17.92
2023-04-14T08:59:29.306Z,17.99
2023-04-14T09:01:35.956Z,18.02
2023-04-14T09:03:16.634Z,18.03
2023-04-14T09:07:11.551Z,18.08
2023-04-14T09:08:43.835Z,18.22
2023-04-14T09:10:17.706Z,18.19
2023-04-14T09:11:49.471Z,18.17
2023-04-14T09:13:21.708Z,18.17
2023-04-14T09:14:56.791Z,18.16
2023-04-14T09:16:32.618Z,18.07
2023-04-14T09:18:04.751Z,18.11
2023-04-14T09:20:35.106Z,18.26
2023-04-14T09:21:53.601Z,18.15
2023-04-14T09:23:35.833Z,18.17
2023-04-14T09:25:19.673Z,18.06
2023-04-14T09:26:53.656Z,17.91
2023-04-14T09:28:32.196Z,17.82
2023-04-14T09:30:06.398Z,17.77
2023-04-14T09:31:38.233Z,17.77
2023-04-14T09:33:26.846Z,17.76
2023-04-14T09:35:01.423Z,17.80
2023-04-14T09:36:33.703Z,17.70
2023-04-14T09:38:05.477Z,17.63
2023-04-14T09:40:14.720Z,17.57
2023-04-14T09:41:49.332Z,17.57
2023-04-14T09:43:44.480Z,17.54
2023-04-14T09:45:20.491Z,17.53
2023-04-14T09:46:58.783Z,17.57
2023-04-14T09:48:30.712Z,17.64
2023-04-14T09:50:07.237Z,17.69
2023-04-14T09:51:38.889Z,17.63
2023-04-14T09:53:11.385Z,17.62
2023-04-14T09:54:43.276Z,17.53
2023-04-14T09:56:15.100Z,17.47
2023-04-14T09:57:47.853Z,17.42
2023-04-14T09:59:35.563Z,17.39
2023-04-14T10:01:14.416Z,17.29
2023-04-14T10:03:03.572Z,17.22
2023-04-14T10:07:13.594Z,17.05
2023-04-14T10:10:48.257Z,17.00
2023-04-14T10:12:21.981Z,16.94
2023-04-14T10:13:54.989Z,16.82
2023-04-14T10:15:31.192Z,16.70
2023-04-14T10:17:07.876Z,16.51
2023-04-14T10:18:40.318Z,16.23
2023-04-14T10:20:12.930Z,16.00
2023-04-14T10:21:46.611Z,15.75
2023-04-14T10:23:18.439Z,15.58
2023-04-14T10:24:56.589Z,15.59
2023-04-14T10:26:43.026Z,15.69
2023-04-14T10:28:23.711Z,15.80
2023-04-14T10:29:55.529Z,15.86
2023-04-14T10:31:28.933Z,15.93
2023-04-14T10:33:00.618Z,16.03
2023-04-14T10:34:35.450Z,16.05
2023-04-14T10:36:07.230Z,16.14
2023-04-14T10:37:39.022Z,16.22
2023-04-14T10:39:11.884Z,16.19
2023-04-14T10:41:00.614Z,16.11
2023-04-14T10:43:09.209Z,16.02
2023-04-14T10:44:41.807Z,15.91
2023-04-14T10:46:18.031Z,15.83
2023-04-14T10:47:50.554Z,15.81
2023-04-14T10:49:24.247Z,15.73
2023-04-14T10:51:00.934Z,15.54
2023-04-14T10:53:04.645Z,15.45
2023-04-14T10:55:40.158Z,15.40
2023-04-14T10:57:23.561Z,15.19
2023-04-14T10:58:56.606Z,15.06
2023-04-14T11:00:28.553Z,14.91
2023-04-14T11:02:00.949Z,14.77
2023-04-14T11:03:33.468Z,14.62
2023-04-14T11:05:10.698Z,14.45
2023-04-14T11:06:48.364Z,14.30
2023-04-14T11:08:26.094Z,14.15
2023-04-14T11:10:05.539Z,13.97
2023-04-14T11:11:37.799Z,13.87
2023-04-14T11:16:05.924Z,13.66
2023-04-14T11:20:00.990Z,13.42
2023-04-14T11:21:35.579Z,13.32
2023-04-14T11:23:07.232Z,13.23
2023-04-14T11:23:16.729Z,13.85
2023-04-14T11:24:40.909Z,13.15
2023-04-14T11:26:14.467Z,13.03
2023-04-14T11:27:47.426Z,12.89
2023-04-14T11:29:20.008Z,12.78
2023-04-14T11:30:52.116Z,12.76
2023-04-14T11:32:24.109Z,12.61
2023-04-14T11:33:56.981Z,12.51
2023-04-14T11:35:35.380Z,12.38
2023-04-14T11:37:16.546Z,12.29
2023-04-14T11:38:51.338Z,12.19
2023-04-14T11:40:23.855Z,12.20
2023-04-14T11:41:57.162Z,12.06
2023-04-14T11:43:32.054Z,11.93
2023-04-14T11:45:19.780Z,11.73
2023-04-14T11:49:29.390Z,11.43
2023-04-14T11:53:28.543Z,11.24
2023-04-14T11:55:50.692Z,11.14
2023-04-14T11:57:30.520Z,11.08
2023-04-14T11:59:28.176Z,11.04
2023-04-14T12:01:13.768Z,11.00
2023-04-14T12:03:11.180Z,10.98
2023-04-14T12:03:20.102Z,11.36
2023-04-14T12:05:07.001Z,11.01
2023-04-14T12:30:10.672Z,11.46
2023-04-14T12:32:03.420Z,11.38
2023-04-14T12:35:38.116Z,11.14
2023-04-14T12:37:22.954Z,11.01
2023-04-14T12:38:57.764Z,10.77
2023-04-14T12:41:35.923Z,10.67
2023-04-14T12:43:39.364Z,10.51
2023-04-14T12:45:14.876Z,10.42
2023-04-14T12:47:02.891Z,10.47
2023-04-14T12:48:49.589Z,10.38
2023-04-14T12:50:35.351Z,10.44
2023-04-14T12:52:45.867Z,10.46
2023-04-14T12:54:42.231Z,10.54
2023-04-14T12:58:24.412Z,10.58
2023-04-14T13:01:06.549Z,10.57
2023-04-14T13:07:00.523Z,10.40
2023-04-14T13:08:44.294Z,10.32
2023-04-14T13:10:19.369Z,10.23
2023-04-14T13:11:51.854Z,10.09
2023-04-14T13:13:38.676Z,10.01
2023-04-14T13:16:12.297Z,9.90
2023-04-14T13:17:03.761Z,9.82
2023-04-14T13:18:35.984Z,9.76
2023-04-14T13:20:08.540Z,9.75
2023-04-14T13:21:46.338Z,9.80
2023-04-14T13:23:23.612Z,9.82
2023-04-14T13:25:00.818Z,9.78
2023-04-14T13:26:33.182Z,9.78
2023-04-14T13:28:05.012Z,9.81
2023-04-14T13:29:39.637Z,9.82
2023-04-14T13:31:25.265Z,9.86
2023-04-14T13:34:49.133Z,9.91
2023-04-14T13:36:31.307Z,9.91
2023-04-14T13:38:07.682Z,9.89
2023-04-14T13:39:42.275Z,9.92
2023-04-14T13:41:15.888Z,9.95
2023-04-14T13:42:49.013Z,9.95
2023-04-14T13:44:20.875Z,9.97
2023-04-14T13:45:53.147Z,9.99
2023-04-14T13:47:40.326Z,10.01
2023-04-14T13:49:15.852Z,9.98
2023-04-14T13:50:47.788Z,9.99
2023-04-14T13:52:27.714Z,9.96
2023-04-14T13:54:00.528Z,9.98
2023-04-14T13:55:34.489Z,10.05
2023-04-14T13:57:07.130Z,10.11
2023-04-14T13:58:40.872Z,10.14
2023-04-14T14:00:18.810Z,10.16
2023-04-14T14:01:51.873Z,10.14
2023-04-14T14:03:29.815Z,10.10
2023-04-14T14:05:04.552Z,10.11
2023-04-14T14:06:40.773Z,10.12
2023-04-14T14:08:15.342Z,10.13
2023-04-14T14:09:52.814Z,10.12
2023-04-14T14:11:25.442Z,10.15
2023-04-14T14:12:58.917Z,10.20
2023-04-14T14:14:33.621Z,10.30
2023-04-14T14:16:07.145Z,10.40
2023-04-14T14:17:41.392Z,10.47
2023-04-14T14:19:17.046Z,10.48
2023-04-14T14:20:48.913Z,10.53
2023-04-14T14:22:23.089Z,10.61
2023-04-14T14:23:54.998Z,10.67
2023-04-14T14:25:26.642Z,10.73
2023-04-14T14:26:58.780Z,10.77
2023-04-14T14:28:30.571Z,10.83
2023-04-14T14:30:02.559Z,10.90
2023-04-14T14:31:34.844Z,10.97
2023-04-14T14:33:06.588Z,11.04
2023-04-14T14:34:39.549Z,11.11
2023-04-14T14:36:11.853Z,11.15
2023-04-14T14:37:45.215Z,11.18
2023-04-14T14:39:20.141Z,11.23
2023-04-14T14:40:52.240Z,11.25
2023-04-14T14:42:24.201Z,11.29
2023-04-14T14:43:56.155Z,11.37
2023-04-14T14:45:37.188Z,11.44
2023-04-14T14:47:09.304Z,11.54
2023-04-14T14:48:41.192Z,11.58
2023-04-14T14:50:13.058Z,11.58
2023-04-14T14:51:44.951Z,11.57
2023-04-14T14:53:16.885Z,11.62
2023-04-14T14:54:49.199Z,11.76
2023-04-14T14:56:21.129Z,11.92
2023-04-14T14:57:52.839Z,12.04
2023-04-14T14:59:24.567Z,12.15
2023-04-14T15:00:56.572Z,12.23
2023-04-14T15:02:30.477Z,12.31
2023-04-14T15:04:06.752Z,12.46
2023-04-14T15:06:37.893Z,12.57
2023-04-14T15:13:56.704Z,13.03
2023-04-14T15:15:29.301Z,13.18
2023-04-14T15:17:01.303Z,13.35
2023-04-14T15:18:33.278Z,13.61
2023-04-14T15:20:06.078Z,13.84
2023-04-14T15:21:38.285Z,14.03
2023-04-14T15:23:10.000Z,14.15
2023-04-14T15:24:41.667Z,14.25
2023-04-14T15:26:14.349Z,14.41
2023-04-14T15:27:46.608Z,14.51
2023-04-14T15:29:19.597Z,14.65
2023-04-14T15:30:51.334Z,14.79
2023-04-14T15:32:26.753Z,14.94
2023-04-14T15:34:02.429Z,15.00
2023-04-14T15:35:38.822Z,15.01
2023-04-14T15:37:11.115Z,14.93
2023-04-14T15:38:43.065Z,14.91
2023-04-14T15:40:18.677Z,14.87
2023-04-14T15:41:51.580Z,14.79
2023-04-14T15:43:23.688Z,14.65
2023-04-14T15:44:58.191Z,14.63
2023-04-14T15:46:30.469Z,14.61
2023-04-14T15:48:19.723Z,14.62
2023-04-14T15:50:18.854Z,14.58
2023-04-14T15:51:57.935Z,14.61
2023-04-14T15:53:33.390Z,14.58
2023-04-14T15:55:30.029Z,14.52
2023-04-14T15:57:07.870Z,14.49
2023-04-14T15:58:50.070Z,14.55
2023-04-14T16:04:20.511Z,14.43
2023-04-14T16:06:04.849Z,14.35
2023-04-14T16:07:36.795Z,14.24
2023-04-14T16:09:08.696Z,14.22
2023-04-14T16:10:44.066Z,14.17
2023-04-14T16:12:18.152Z,14.10
2023-04-14T16:13:50.170Z,14.03
2023-04-14T16:15:25.109Z,13.90
2023-04-14T16:16:58.588Z,13.78
2023-04-14T16:18:30.370Z,13.68
2023-04-14T16:20:04.686Z,13.62
2023-04-14T16:21:36.436Z,13.54
2023-04-14T16:23:08.217Z,13.51
2023-04-14T16:24:41.377Z,13.47
2023-04-14T16:26:16.171Z,13.41
2023-04-14T16:27:48.671Z,13.43
2023-04-14T16:29:20.664Z,13.39
2023-04-14T16:31:02.152Z,13.37
2023-04-14T16:32:34.240Z,13.30
2023-04-14T16:34:06.259Z,13.21
2023-04-14T16:35:38.544Z,13.19
2023-04-14T16:37:10.360Z,13.05
2023-04-14T16:38:42.428Z,13.00
2023-04-14T16:40:39.503Z,12.99
2023-04-14T16:42:14.491Z,12.88
2023-04-14T16:43:46.352Z,12.73
2023-04-14T16:45:20.334Z,12.61
2023-04-14T16:46:55.020Z,12.48
2023-04-14T16:48:29.544Z,12.45
2023-04-14T16:50:04.421Z,12.42
2023-04-14T16:51:47.163Z,12.29
2023-04-14T16:53:19.243Z,12.22
2023-04-14T16:54:53.108Z,12.15
2023-04-14T16:57:30.278Z,12.10
2023-04-14T17:01:41.590Z,11.93
2023-04-14T17:03:20.868Z,11.87
2023-04-14T17:04:53.478Z,11.88
2023-04-14T17:08:09.834Z,11.89
2023-04-14T17:09:42.113Z,11.82
2023-04-14T17:11:15.190Z,11.83
2023-04-14T17:12:47.559Z,11.85
2023-04-14T17:14:26.384Z,11.86
2023-04-14T17:16:06.111Z,11.86
2023-04-14T17:17:50.018Z,11.82
2023-04-14T17:19:25.733Z,11.81
2023-04-14T17:20:57.492Z,11.80
2023-04-14T17:22:29.134Z,11.81
2023-04-14T17:24:01.318Z,11.81
2023-04-14T17:25:33.763Z,11.85
2023-04-14T17:27:05.633Z,11.96
2023-04-14T17:28:38.748Z,12.00
2023-04-14T17:30:11.608Z,12.02
2023-04-14T17:31:44.584Z,12.10
2023-04-14T17:33:18.034Z,12.12
2023-04-14T17:34:50.422Z,12.14
2023-04-14T17:36:23.100Z,12.13
2023-04-14T17:37:56.474Z,12.09
2023-04-14T17:39:28.762Z,12.09
2023-04-14T17:41:01.360Z,12.08
2023-04-14T17:42:34.553Z,12.09
2023-04-14T17:44:07.011Z,12.08
2023-04-14T17:45:40.231Z,12.07
2023-04-14T17:47:15.790Z,12.07
2023-04-14T17:48:47.516Z,12.04
2023-04-14T17:50:19.934Z,12.07
2023-04-14T17:51:51.572Z,12.04
2023-04-14T17:53:23.228Z,12.03
2023-04-14T17:54:54.982Z,12.06
2023-04-14T17:56:26.743Z,12.08
2023-04-14T17:57:58.796Z,12.06
2023-04-14T17:59:30.652Z,12.08
2023-04-14T18:01:02.307Z,12.06
2023-04-14T18:02:37.277Z,12.07
2023-04-14T18:04:09.071Z,12.04
2023-04-14T18:05:41.544Z,12.02
2023-04-14T18:07:13.427Z,11.98
2023-04-14T18:08:50.011Z,11.90
2023-04-14T18:10:25.853Z,11.82
2023-04-14T18:11:58.157Z,11.82
2023-04-14T18:13:30.264Z,11.84
2023-04-14T18:15:02.246Z,11.77
2023-04-14T18:16:34.301Z,11.65
2023-04-14T18:18:06.384Z,11.56
2023-04-14T18:19:38.654Z,11.45
2023-04-14T18:21:10.669Z,11.36
2023-04-14T18:22:43.564Z,11.29
2023-04-14T18:29:09.173Z,11.03
2023-04-14T18:30:41.365Z,10.98
2023-04-14T18:32:14.004Z,10.97
2023-04-14T18:33:45.972Z,10.94
2023-04-14T18:35:17.775Z,10.86
2023-04-14T18:36:49.966Z,10.79
2023-04-14T18:38:22.000Z,10.72
2023-04-14T18:39:54.135Z,10.62
2023-04-14T18:41:26.045Z,10.55
2023-04-14T18:42:57.793Z,10.46
2023-04-14T18:44:29.932Z,10.36
2023-04-14T18:46:01.693Z,10.26
2023-04-14T18:47:34.289Z,10.19
2023-04-14T18:49:06.016Z,10.12
2023-04-14T18:50:37.718Z,10.07
2023-04-14T18:52:09.809Z,10.02
2023-04-14T18:53:44.137Z,10.00
2023-04-14T18:55:15.873Z,9.98
2023-04-14T18:56:47.957Z,9.96
2023-04-14T18:58:19.935Z,9.96
2023-04-14T18:59:51.559Z,9.98
2023-04-14T19:01:23.383Z,10.01
2023-04-14T19:02:56.806Z,9.99
2023-04-14T19:04:29.099Z,9.97
2023-04-14T19:06:00.793Z,9.96
2023-04-14T19:07:32.804Z,9.97
2023-04-14T19:09:04.907Z,10.01
2023-04-14T19:10:37.598Z,10.07
2023-04-14T19:12:18.420Z,10.06
2023-04-14T19:13:57.020Z,10.07
2023-04-14T19:15:28.810Z,10.05
2023-04-14T19:17:00.876Z,10.00
2023-04-14T19:18:32.970Z,9.95
2023-04-14T19:20:05.430Z,9.95
2023-04-14T19:21:37.218Z,9.92
2023-04-14T19:23:09.102Z,9.90
2023-04-14T19:24:41.826Z,9.86
2023-04-14T19:26:31.230Z,9.84
2023-04-14T19:28:04.970Z,9.81
2023-04-14T19:29:36.960Z,9.84
2023-04-14T19:31:17.803Z,9.92
2023-04-14T19:33:01.779Z,9.93
2023-04-14T19:34:50.706Z,9.90
2023-04-14T19:37:08.089Z,9.86
2023-04-14T19:38:41.718Z,9.80
2023-04-14T19:40:14.491Z,9.76
2023-04-14T19:41:47.058Z,9.76
2023-04-14T19:43:20.334Z,9.77
2023-04-14T19:44:52.525Z,9.79
2023-04-14T19:46:24.648Z,9.82
2023-04-14T19:47:56.389Z,9.77
2023-04-14T19:49:28.616Z,9.76
2023-04-14T19:51:00.479Z,9.78
2023-04-14T19:52:32.377Z,9.82
2023-04-14T19:54:05.756Z,9.80
2023-04-14T19:55:37.618Z,9.79
2023-04-14T19:57:10.856Z,9.79
2023-04-14T19:58:43.733Z,9.76
2023-04-14T20:00:17.085Z,9.74
2023-04-14T20:01:50.826Z,9.76
2023-04-14T20:03:22.779Z,9.77
2023-04-14T20:04:54.682Z,9.82
2023-04-14T20:06:27.034Z,9.83
2023-04-14T20:07:59.147Z,9.87
2023-04-14T20:09:31.008Z,9.92
2023-04-14T20:11:02.939Z,9.97
2023-04-14T20:12:34.944Z,9.94
2023-04-14T20:14:06.859Z,9.92
2023-04-14T20:15:38.544Z,9.89
2023-04-14T20:17:10.364Z,9.87
2023-04-14T20:18:45.855Z,9.89
2023-04-14T20:20:18.125Z,9.87
2023-04-14T20:21:49.975Z,9.88
2023-04-14T20:23:21.992Z,9.83
2023-04-14T20:24:53.888Z,9.80
2023-04-14T20:26:25.633Z,9.78
2023-04-14T20:27:57.750Z,9.78
2023-04-14T20:29:38.476Z,9.77
2023-04-14T20:31:22.867Z,9.71
2023-04-14T20:33:10.687Z,9.70
2023-04-14T20:35:23.873Z,9.67
2023-04-14T20:36:57.096Z,9.62
2023-04-14T20:39:23.860Z,9.63
2023-04-14T20:41:01.290Z,9.58
2023-04-14T20:42:33.761Z,9.55
2023-04-14T20:44:05.732Z,9.51
2023-04-14T20:45:57.642Z,9.52
2023-04-14T20:47:29.353Z,9.52
2023-04-14T20:49:03.112Z,9.57
2023-04-14T20:50:35.210Z,9.59
2023-04-14T20:52:07.744Z,9.61
2023-04-14T20:53:39.636Z,9.63
2023-04-14T20:55:12.386Z,9.69
2023-04-14T20:56:44.259Z,9.69
2023-04-14T20:58:16.076Z,9.66
2023-04-14T20:59:48.035Z,9.64
2023-04-14T21:01:20.731Z,9.57
2023-04-14T21:02:52.816Z,9.53
2023-04-14T21:04:26.223Z,9.49
2023-04-14T21:05:58.320Z,9.45
2023-04-14T21:08:09.290Z,9.46
2023-04-14T21:19:45.708Z,9.42
2023-04-14T21:21:18.140Z,9.43
2023-04-14T21:22:49.736Z,9.46
2023-04-14T21:24:21.285Z,9.53
2023-04-14T21:25:52.835Z,9.60
2023-04-14T21:27:24.348Z,9.65
2023-04-14T21:28:56.749Z,9.72
2023-04-14T21:35:19.454Z,9.93
2023-04-14T21:36:51.561Z,9.94
2023-04-14T21:38:29.042Z,9.95
2023-04-14T21:40:08.229Z,9.97
2023-04-14T21:41:46.392Z,9.99
2023-04-14T21:43:18.403Z,10.00
2023-04-14T21:44:50.512Z,9.98
2023-04-14T21:46:22.339Z,9.99
2023-04-14T21:47:54.281Z,10.02
2023-04-14T21:49:26.030Z,10.03
2023-04-14T21:50:57.878Z,10.05
2023-04-14T21:52:29.802Z,10.09
2023-04-14T21:54:01.548Z,10.11
2023-04-14T21:55:33.382Z,10.16
2023-04-14T21:58:57.803Z,10.21
2023-04-14T22:00:31.077Z,10.24
2023-04-14T22:02:03.190Z,10.23
2023-04-14T22:03:37.723Z,10.19
2023-04-14T22:05:09.605Z,10.14
2023-04-14T22:06:43.219Z,10.14
2023-04-14T22:08:15.018Z,10.11
2023-04-14T22:09:48.952Z,10.09
2023-04-14T22:11:24.159Z,10.07
2023-04-14T22:12:56.204Z,10.06
2023-04-14T22:14:27.959Z,10.02
2023-04-14T22:16:02.976Z,9.99
2023-04-14T22:17:35.606Z,9.95
2023-04-14T22:19:07.550Z,9.96
2023-04-14T22:20:39.834Z,9.95
2023-04-14T22:22:11.556Z,9.94
2023-04-14T22:23:46.614Z,9.93
2023-04-14T22:25:20.964Z,9.93
2023-04-14T22:27:02.211Z,9.91
2023-04-14T22:28:38.296Z,9.89
2023-04-14T22:30:28.547Z,9.89
2023-04-14T22:32:01.146Z,9.91
2023-04-14T22:33:38.082Z,9.93
2023-04-14T22:35:10.756Z,9.99
2023-04-14T22:36:43.336Z,10.04
2023-04-14T22:38:15.217Z,10.09
2023-04-14T22:39:52.360Z,10.16
2023-04-14T22:41:27.438Z,10.22
2023-04-14T22:42:59.118Z,10.31
2023-04-14T22:44:31.013Z,10.33
2023-04-14T22:46:05.548Z,10.36
2023-04-14T22:47:38.256Z,10.39
2023-04-14T22:49:10.152Z,10.40
2023-04-14T22:50:42.157Z,10.41
2023-04-14T22:52:14.039Z,10.41